createdAt,value
2023-04-26T00:01:50.004Z,86.69
2023-04-26T00:04:16.691Z,87.37
2023-04-26T00:06:43.565Z,87.19
2023-04-26T00:09:10.994Z,87.99
2023-04-26T00:11:37.545Z,86.76
2023-04-26T00:14:04.111Z,86.92
2023-04-26T00:16:30.648Z,87.26
2023-04-26T00:18:57.289Z,87.91
2023-04-26T00:21:25.074Z,87.72
2023-04-26T00:23:52.330Z,87.56
2023-04-26T00:26:18.786Z,88.05
2023-04-26T00:28:45.437Z,88.15
2023-04-26T00:31:18.310Z,87.94
2023-04-26T00:33:44.908Z,87.92
2023-04-26T00:36:12.999Z,88.15
2023-04-26T00:38:39.516Z,88.88
2023-04-26T00:41:06.095Z,88.66
2023-04-26T00:43:32.653Z,88.50
2023-04-26T00:45:59.130Z,87.62
2023-04-26T00:48:26.305Z,88.51
2023-04-26T00:50:52.855Z,88.79
2023-04-26T00:53:19.395Z,88.71
2023-04-26T00:55:45.995Z,88.67
2023-04-26T00:58:12.600Z,88.65
2023-04-26T01:00:39.070Z,88.59
2023-04-26T01:03:05.662Z,88.08
2023-04-26T01:05:32.407Z,88.03
2023-04-26T01:07:59.979Z,87.92
2023-04-26T01:10:26.581Z,87.81
2023-04-26T01:12:53.157Z,88.17
2023-04-26T01:15:20.045Z,87.96
2023-04-26T01:17:47.536Z,88.53
2023-04-26T01:20:14.645Z,88.81
2023-04-26T01:22:41.402Z,88.88
2023-04-26T01:25:12.077Z,88.11
2023-04-26T01:27:38.801Z,88.34
2023-04-26T01:30:05.991Z,87.33
2023-04-26T01:32:32.585Z,87.56
2023-04-26T01:35:00.618Z,87.65
2023-04-26T01:37:27.117Z,87.18
2023-04-26T01:39:53.589Z,87.85
2023-04-26T01:42:20.163Z,87.58
2023-04-26T01:44:46.740Z,88.24
2023-04-26T01:47:13.229Z,89.00
2023-04-26T01:49:39.755Z,88.67
2023-04-26T01:52:06.253Z,88.37
2023-04-26T01:54:32.758Z,87.98
2023-04-26T01:56:59.243Z,88.65
2023-04-26T01:59:26.793Z,87.68
2023-04-26T02:01:53.356Z,88.29
2023-04-26T02:04:19.887Z,87.89
2023-04-26T02:06:46.393Z,87.84
2023-04-26T02:09:12.855Z,86.65
2023-04-26T02:11:39.432Z,86.62
2023-04-26T02:14:06.286Z,86.99
2023-04-26T02:16:33.063Z,87.75
2023-04-26T02:19:00.193Z,88.98
2023-04-26T02:21:28.415Z,89.22
2023-04-26T02:23:54.979Z,89.05
2023-04-26T02:26:21.439Z,88.45
2023-04-26T02:28:48.111Z,89.17
2023-04-26T02:31:14.883Z,88.53
2023-04-26T02:33:41.496Z,88.71
2023-04-26T02:36:08.273Z,88.81
2023-04-26T02:38:35.839Z,89.03
2023-04-26T02:41:03.794Z,89.80
2023-04-26T02:43:30.331Z,89.52
2023-04-26T02:45:58.958Z,89.47
2023-04-26T02:48:25.900Z,89.20
2023-04-26T02:50:52.603Z,89.05
2023-04-26T02:53:19.111Z,89.00
2023-04-26T02:55:46.298Z,89.03
2023-04-26T02:58:13.188Z,88.13
2023-04-26T03:00:39.794Z,87.87
2023-04-26T03:03:06.798Z,88.01
2023-04-26T03:05:33.413Z,86.99
2023-04-26T03:07:59.848Z,86.33
2023-04-26T03:10:26.513Z,84.41
2023-04-26T03:12:53.273Z,84.26
2023-04-26T03:15:19.757Z,84.51
2023-04-26T03:17:46.498Z,84.06
2023-04-26T03:20:13.905Z,84.48
2023-04-26T03:22:40.502Z,83.73
2023-04-26T03:25:07.869Z,83.53
2023-04-26T03:27:34.552Z,83.75
2023-04-26T03:30:01.072Z,83.81
2023-04-26T03:32:27.740Z,83.82
2023-04-26T03:34:54.256Z,83.97
2023-04-26T03:37:20.911Z,85.57
2023-04-26T03:39:47.662Z,86.62
2023-04-26T03:42:14.317Z,87.09
2023-04-26T03:44:40.933Z,86.78
2023-04-26T03:47:07.516Z,86.63
2023-04-26T03:49:34.485Z,85.67
2023-04-26T03:52:01.370Z,85.35
2023-04-26T03:54:27.967Z,84.31
2023-04-26T03:56:54.683Z,84.62
2023-04-26T03:59:21.362Z,84.40
2023-04-26T04:01:47.969Z,84.13
2023-04-26T04:04:14.752Z,84.48
2023-04-26T04:06:41.971Z,84.96
2023-04-26T04:09:10.420Z,85.61
2023-04-26T04:11:36.960Z,85.07
2023-04-26T04:14:03.718Z,84.79
2023-04-26T04:16:30.334Z,85.17
2023-04-26T04:18:57.011Z,85.21
2023-04-26T04:21:23.611Z,85.87
2023-04-26T04:23:50.402Z,85.58
2023-04-26T04:26:17.611Z,85.61
2023-04-26T04:28:45.579Z,85.15
2023-04-26T04:31:13.100Z,87.21
2023-04-26T04:33:40.026Z,87.27
2023-04-26T04:36:07.065Z,87.04
2023-04-26T04:38:33.732Z,87.30
2023-04-26T04:41:00.321Z,87.41
2023-04-26T04:43:27.953Z,86.79
2023-04-26T04:45:54.473Z,86.57
2023-04-26T04:48:21.387Z,85.76
2023-04-26T04:50:49.523Z,85.98
2023-04-26T04:53:16.295Z,85.30
2023-04-26T04:55:42.844Z,84.33
2023-04-26T04:58:11.889Z,84.15
2023-04-26T05:00:38.900Z,83.69
2023-04-26T05:03:05.667Z,82.90
2023-04-26T05:05:32.409Z,83.53
2023-04-26T05:07:58.942Z,82.87
2023-04-26T05:10:25.649Z,83.89
2023-04-26T05:12:52.368Z,83.71
2023-04-26T05:15:19.083Z,83.50
2023-04-26T05:17:45.646Z,82.81
2023-04-26T05:20:12.513Z,82.54
2023-04-26T05:22:39.943Z,81.42
2023-04-26T05:25:08.245Z,82.56
2023-04-26T05:27:34.906Z,82.67
2023-04-26T05:30:01.601Z,82.38
2023-04-26T05:32:28.052Z,81.63
2023-04-26T05:34:54.644Z,80.59
2023-04-26T05:37:21.149Z,80.66
2023-04-26T05:39:47.598Z,79.88
2023-04-26T05:42:16.260Z,80.45
2023-04-26T05:44:44.229Z,78.53
2023-04-26T05:47:11.621Z,78.61
2023-04-26T05:49:38.431Z,77.58
2023-04-26T05:52:05.189Z,77.21
2023-04-26T05:54:31.692Z,78.37
2023-04-26T05:56:59.298Z,76.95
2023-04-26T05:59:26.017Z,76.92
2023-04-26T06:01:52.581Z,75.29
2023-04-26T06:04:20.838Z,74.87
2023-04-26T06:06:47.709Z,74.07
2023-04-26T06:09:14.341Z,71.61
2023-04-26T06:11:41.096Z,69.42
2023-04-26T06:14:14.291Z,65.10
2023-04-26T06:16:46.760Z,62.95
2023-04-26T06:19:13.419Z,61.56
2023-04-26T06:21:39.898Z,60.36
2023-04-26T06:24:07.060Z,61.28
2023-04-26T06:26:33.756Z,60.00
2023-04-26T06:29:00.492Z,57.67
2023-04-26T06:31:27.318Z,58.29
2023-04-26T06:33:54.500Z,55.27
2023-04-26T06:36:21.512Z,56.01
2023-04-26T06:38:48.766Z,54.39
2023-04-26T06:41:15.555Z,56.67
2023-04-26T06:43:42.124Z,52.34
2023-04-26T06:46:09.368Z,47.41
2023-04-26T06:48:36.962Z,49.01
2023-04-26T06:51:07.472Z,49.86
2023-04-26T06:53:37.608Z,47.46
2023-04-26T06:56:04.259Z,44.99
2023-04-26T06:58:30.831Z,44.26
2023-04-26T07:00:57.617Z,41.96
2023-04-26T07:03:24.743Z,43.98
2023-04-26T07:05:51.685Z,41.03
2023-04-26T07:08:18.741Z,40.35
2023-04-26T07:10:45.352Z,42.37
2023-04-26T07:13:12.116Z,45.43
2023-04-26T07:15:38.705Z,42.81
2023-04-26T07:18:05.307Z,43.51
2023-04-26T07:20:32.021Z,40.68
2023-04-26T07:22:58.707Z,41.72
2023-04-26T07:25:25.536Z,47.60
2023-04-26T07:27:52.411Z,50.59
2023-04-26T07:30:19.230Z,50.53
2023-04-26T07:32:45.933Z,48.94
2023-04-26T07:35:16.344Z,45.64
2023-04-26T07:37:44.273Z,48.00
2023-04-26T07:40:13.477Z,44.06
2023-04-26T07:42:40.168Z,43.85
2023-04-26T07:45:07.363Z,47.71
2023-04-26T07:47:34.028Z,49.29
2023-04-26T07:50:00.941Z,45.21
2023-04-26T07:52:27.627Z,45.28
2023-04-26T07:54:54.165Z,43.50
2023-04-26T07:57:21.046Z,45.28
2023-04-26T07:59:47.704Z,48.36
2023-04-26T08:02:14.488Z,51.02
2023-04-26T08:04:48.830Z,49.82
2023-04-26T08:07:16.545Z,49.69
2023-04-26T08:09:43.153Z,48.16
2023-04-26T08:12:10.444Z,51.00
2023-04-26T08:14:37.228Z,53.65
2023-04-26T08:17:03.818Z,55.17
2023-04-26T08:19:32.795Z,57.20
2023-04-26T08:22:00.106Z,53.33
2023-04-26T08:24:26.717Z,53.12
2023-04-26T08:26:53.620Z,53.32
2023-04-26T08:29:21.078Z,51.63
2023-04-26T08:31:47.568Z,50.27
2023-04-26T08:34:14.213Z,52.84
2023-04-26T08:36:45.819Z,54.10
2023-04-26T08:39:12.495Z,54.72
2023-04-26T08:41:50.427Z,55.30
2023-04-26T08:44:18.320Z,56.57
2023-04-26T08:46:50.800Z,57.07
2023-04-26T08:49:17.452Z,55.62
2023-04-26T08:51:44.701Z,54.13
2023-04-26T08:54:12.541Z,53.34
2023-04-26T08:56:39.465Z,53.82
2023-04-26T08:59:06.023Z,54.39
2023-04-26T09:01:33.476Z,56.72
2023-04-26T09:04:00.955Z,58.71
2023-04-26T09:06:28.216Z,57.68
2023-04-26T09:08:55.656Z,54.92
2023-04-26T09:11:22.647Z,54.81
2023-04-26T09:13:49.177Z,56.33
2023-04-26T09:16:15.990Z,56.60
2023-04-26T09:18:52.760Z,58.53
2023-04-26T09:21:20.168Z,56.66
2023-04-26T09:23:58.373Z,55.40
2023-04-26T09:26:24.996Z,54.47
2023-04-26T09:29:11.673Z,54.03
2023-04-26T09:31:40.797Z,55.10
2023-04-26T09:34:08.708Z,52.81
2023-04-26T09:36:54.900Z,50.89
2023-04-26T09:39:38.291Z,53.77
2023-04-26T09:42:06.018Z,52.12
2023-04-26T09:44:32.953Z,53.11
2023-04-26T09:47:03.197Z,53.86
2023-04-26T09:49:32.229Z,52.36
2023-04-26T09:52:03.673Z,53.05
2023-04-26T09:54:45.776Z,50.73
2023-04-26T09:57:14.173Z,51.15
2023-04-26T09:59:46.632Z,52.00
2023-04-26T10:02:39.371Z,49.10
2023-04-26T10:05:07.384Z,47.30
2023-04-26T10:07:34.626Z,48.54
2023-04-26T10:10:03.826Z,47.79
2023-04-26T10:12:30.846Z,48.07
2023-04-26T10:14:57.927Z,48.14
2023-04-26T10:17:24.700Z,49.16
2023-04-26T10:19:54.830Z,47.94
2023-04-26T10:22:24.002Z,48.18
2023-04-26T10:24:51.747Z,47.76
2023-04-26T10:27:44.363Z,46.15
2023-04-26T10:30:13.846Z,46.33
2023-04-26T10:32:53.047Z,48.21
2023-04-26T10:35:20.183Z,47.62
2023-04-26T10:38:01.909Z,48.88
2023-04-26T10:40:31.622Z,48.45
2023-04-26T10:43:16.405Z,47.48
2023-04-26T10:45:44.288Z,48.01
2023-04-26T10:48:22.515Z,47.56
2023-04-26T10:51:09.436Z,46.95
2023-04-26T10:53:36.005Z,44.74
2023-04-26T10:56:02.986Z,45.73
2023-04-26T10:58:30.780Z,45.12
2023-04-26T11:01:23.645Z,45.62
2023-04-26T11:03:56.577Z,46.12
2023-04-26T11:06:24.684Z,47.45
2023-04-26T11:08:51.906Z,48.20
2023-04-26T11:11:22.205Z,49.74
2023-04-26T11:13:48.689Z,47.10
2023-04-26T11:16:16.736Z,45.30
2023-04-26T11:18:47.480Z,45.57
2023-04-26T11:21:18.075Z,46.64
2023-04-26T11:23:53.755Z,47.01
2023-04-26T11:26:20.547Z,46.35
2023-04-26T11:28:49.091Z,46.72
2023-04-26T11:31:15.691Z,46.20
2023-04-26T11:33:42.240Z,47.90
2023-04-26T11:36:09.848Z,46.60
2023-04-26T11:38:38.219Z,47.12
2023-04-26T11:41:04.988Z,47.07
2023-04-26T11:43:38.335Z,46.89
2023-04-26T11:46:06.920Z,48.23
2023-04-26T11:48:37.315Z,46.79
2023-04-26T11:51:05.291Z,46.47
2023-04-26T11:53:37.786Z,47.94
2023-04-26T11:56:25.263Z,47.12
2023-04-26T11:58:52.855Z,46.75
2023-04-26T12:01:24.554Z,45.81
2023-04-26T12:04:00.845Z,47.01
2023-04-26T12:06:35.010Z,44.29
2023-04-26T12:09:05.641Z,44.98
2023-04-26T12:11:32.366Z,43.43
2023-04-26T12:13:59.585Z,41.95
2023-04-26T12:16:27.322Z,42.98
2023-04-26T12:18:55.074Z,44.33
2023-04-26T12:21:22.003Z,42.83
2023-04-26T12:23:49.067Z,43.28
2023-04-26T12:26:15.916Z,42.33
2023-04-26T12:28:42.596Z,43.47
2023-04-26T12:31:09.459Z,45.48
2023-04-26T12:33:36.507Z,44.37
2023-04-26T12:36:10.456Z,43.73
2023-04-26T12:38:37.337Z,45.04
2023-04-26T12:41:04.472Z,45.39
2023-04-26T12:43:31.294Z,44.08
2023-04-26T12:45:58.065Z,42.06
2023-04-26T12:48:24.646Z,42.53
2023-04-26T12:50:51.498Z,43.63
2023-04-26T12:53:18.684Z,42.31
2023-04-26T12:55:45.258Z,42.79
2023-04-26T12:58:12.173Z,42.96
2023-04-26T13:00:39.041Z,43.64
2023-04-26T13:03:05.884Z,44.21
2023-04-26T13:05:32.667Z,44.41
2023-04-26T13:08:01.972Z,45.56
2023-04-26T13:10:28.716Z,45.72
2023-04-26T13:12:56.011Z,45.53
2023-04-26T13:15:24.719Z,45.23
2023-04-26T13:17:51.364Z,45.32
2023-04-26T13:20:18.183Z,44.37
2023-04-26T13:22:44.697Z,44.61
2023-04-26T13:25:13.130Z,44.31
2023-04-26T13:27:39.721Z,44.61
2023-04-26T13:30:07.263Z,44.29
2023-04-26T13:32:34.064Z,44.79
2023-04-26T13:35:00.642Z,45.36
2023-04-26T13:37:27.529Z,43.24
2023-04-26T13:39:54.518Z,42.74
2023-04-26T13:42:21.357Z,42.73
2023-04-26T13:44:48.053Z,43.63
2023-04-26T13:47:14.555Z,43.53
2023-04-26T13:49:44.972Z,44.35
2023-04-26T13:52:11.966Z,44.59
2023-04-26T13:54:40.136Z,45.42
2023-04-26T13:57:07.506Z,41.44
2023-04-26T13:59:37.144Z,41.85
2023-04-26T14:02:03.850Z,42.68
2023-04-26T14:04:31.030Z,40.99
2023-04-26T14:06:58.700Z,41.52
2023-04-26T14:09:25.255Z,43.35
2023-04-26T14:12:06.598Z,43.41
2023-04-26T14:14:34.630Z,43.36
2023-04-26T14:17:01.660Z,44.06
2023-04-26T14:19:28.246Z,43.68
2023-04-26T14:21:54.903Z,43.86
2023-04-26T14:24:21.400Z,45.79
2023-04-26T14:26:47.884Z,45.29
2023-04-26T14:29:14.449Z,45.42
2023-04-26T14:31:41.220Z,45.97
2023-04-26T14:34:07.708Z,45.48
2023-04-26T14:36:34.961Z,45.16
2023-04-26T14:39:02.764Z,45.55
2023-04-26T14:41:29.235Z,45.91
2023-04-26T14:43:56.103Z,45.81
2023-04-26T14:46:22.949Z,45.97
2023-04-26T14:48:49.559Z,47.23
2023-04-26T14:51:16.151Z,47.63
2023-04-26T14:53:42.684Z,48.18
2023-04-26T14:56:09.520Z,47.79
2023-04-26T14:58:36.267Z,48.20
2023-04-26T15:01:02.931Z,48.38
2023-04-26T15:03:29.755Z,48.54
2023-04-26T15:05:56.687Z,48.46
2023-04-26T15:08:23.509Z,47.84
2023-04-26T15:10:51.265Z,48.68
2023-04-26T15:13:18.013Z,48.92
2023-04-26T15:15:44.880Z,48.87
2023-04-26T15:18:11.481Z,48.64
2023-04-26T15:20:41.432Z,48.93
2023-04-26T15:23:08.671Z,49.37
2023-04-26T15:25:36.870Z,48.48
2023-04-26T15:28:03.784Z,48.89
2023-04-26T15:30:30.666Z,48.59
2023-04-26T15:32:57.469Z,50.23
2023-04-26T15:35:24.932Z,49.08
2023-04-26T15:37:53.781Z,48.99
2023-04-26T15:40:21.186Z,49.76
2023-04-26T15:42:49.133Z,48.66
2023-04-26T15:45:15.696Z,48.84
2023-04-26T15:47:42.365Z,49.21
2023-04-26T15:50:09.153Z,50.23
2023-04-26T15:52:38.937Z,49.37
2023-04-26T15:55:09.882Z,48.73
2023-04-26T15:57:36.888Z,49.03
2023-04-26T16:00:05.904Z,48.46
2023-04-26T16:02:32.422Z,49.08
2023-04-26T16:04:59.452Z,49.07
2023-04-26T16:07:26.613Z,50.21
2023-04-26T16:09:53.177Z,49.10
2023-04-26T16:12:19.846Z,49.32
2023-04-26T16:14:46.336Z,49.77
2023-04-26T16:17:12.965Z,50.75
2023-04-26T16:19:39.605Z,50.96
2023-04-26T16:22:06.231Z,49.90
2023-04-26T16:24:32.864Z,50.34
2023-04-26T16:26:59.474Z,50.30
2023-04-26T16:29:26.276Z,49.88
2023-04-26T16:31:53.019Z,50.24
2023-04-26T16:34:20.011Z,50.62
2023-04-26T16:36:46.942Z,50.25
2023-04-26T16:39:15.853Z,50.75
2023-04-26T16:41:42.832Z,51.04
2023-04-26T16:44:09.492Z,49.89
2023-04-26T16:46:36.394Z,50.72
2023-04-26T16:49:09.194Z,50.58
2023-04-26T16:51:37.184Z,50.80
2023-04-26T16:54:04.067Z,51.00
2023-04-26T16:56:30.600Z,51.64
2023-04-26T16:58:57.672Z,51.14
2023-04-26T17:01:24.272Z,50.64
2023-04-26T17:03:51.990Z,51.15
2023-04-26T17:06:18.948Z,50.66
2023-04-26T17:08:45.615Z,51.22
2023-04-26T17:11:16.213Z,51.75
2023-04-26T17:13:42.877Z,51.97
2023-04-26T17:16:09.653Z,52.26
2023-04-26T17:18:37.171Z,52.31
2023-04-26T17:21:04.859Z,52.44
2023-04-26T17:23:33.353Z,52.34
2023-04-26T17:26:00.725Z,54.01
2023-04-26T17:28:27.278Z,53.55
2023-04-26T17:30:53.917Z,54.91
2023-04-26T17:33:20.660Z,54.42
2023-04-26T17:35:47.493Z,54.56
2023-04-26T17:38:14.182Z,54.09
2023-04-26T17:40:40.758Z,53.82
2023-04-26T17:43:07.747Z,54.14
2023-04-26T17:45:34.955Z,54.02
2023-04-26T17:48:01.783Z,53.49
2023-04-26T17:50:30.410Z,52.92
2023-04-26T17:52:57.046Z,52.57
2023-04-26T17:55:23.656Z,53.33
2023-04-26T17:57:50.461Z,54.13
2023-04-26T18:00:17.494Z,54.28
2023-04-26T18:02:44.354Z,53.65
2023-04-26T18:05:11.134Z,53.53
2023-04-26T18:07:38.522Z,54.15
2023-04-26T18:10:06.497Z,53.44
2023-04-26T18:12:33.235Z,54.17
2023-04-26T18:14:59.924Z,54.08
2023-04-26T18:17:26.909Z,54.04
2023-04-26T18:19:53.633Z,53.59
2023-04-26T18:22:20.439Z,54.33
2023-04-26T18:24:47.129Z,54.96
2023-04-26T18:27:14.209Z,54.86
2023-04-26T18:29:41.394Z,55.71
2023-04-26T18:32:08.105Z,55.55
2023-04-26T18:34:34.921Z,55.90
2023-04-26T18:37:01.459Z,56.53
2023-04-26T18:39:28.276Z,56.84
2023-04-26T18:41:54.883Z,56.60
2023-04-26T18:44:21.421Z,56.65
2023-04-26T18:46:48.313Z,57.38
2023-04-26T18:49:15.199Z,57.37
2023-04-26T18:51:41.732Z,57.48
2023-04-26T18:54:08.384Z,57.58
2023-04-26T18:56:37.518Z,58.17
2023-04-26T18:59:04.060Z,58.06
2023-04-26T19:01:30.874Z,59.46
2023-04-26T19:03:57.786Z,60.18
2023-04-26T19:06:24.426Z,60.47
2023-04-26T19:08:51.798Z,60.35
2023-04-26T19:11:18.700Z,60.71
2023-04-26T19:13:45.376Z,60.44
2023-04-26T19:16:12.330Z,60.64
2023-04-26T19:18:44.122Z,61.36
2023-04-26T19:21:10.618Z,61.48
2023-04-26T19:23:38.284Z,62.20
2023-04-26T19:26:09.745Z,62.76
2023-04-26T19:28:37.886Z,63.01
2023-04-26T19:31:04.604Z,63.05
2023-04-26T19:33:31.364Z,63.25
2023-04-26T19:35:58.051Z,63.52
2023-04-26T19:38:25.358Z,63.67
2023-04-26T19:40:53.269Z,63.90
2023-04-26T19:43:20.463Z,65.07
2023-04-26T19:45:47.115Z,63.79
2023-04-26T19:48:13.965Z,63.66
2023-04-26T19:50:44.680Z,63.86
2023-04-26T19:53:13.184Z,63.35
2023-04-26T19:55:41.082Z,62.81
2023-04-26T19:58:08.536Z,62.83
2023-04-26T20:00:39.128Z,63.37
2023-04-26T20:03:06.229Z,63.89
2023-04-26T20:05:33.616Z,64.01
2023-04-26T20:08:00.411Z,64.52
2023-04-26T20:10:30.339Z,65.09
2023-04-26T20:12:56.888Z,65.74
2023-04-26T20:15:24.191Z,65.10
2023-04-26T20:17:50.948Z,65.97
2023-04-26T20:20:17.557Z,65.98
2023-04-26T20:22:44.309Z,66.17
2023-04-26T20:25:11.160Z,66.09
2023-04-26T20:27:38.050Z,65.85
2023-04-26T20:30:05.044Z,65.83
2023-04-26T20:32:31.702Z,66.84
2023-04-26T20:34:58.339Z,66.20
2023-04-26T20:37:24.818Z,66.72
2023-04-26T20:39:51.411Z,66.95
2023-04-26T20:42:17.913Z,67.69
2023-04-26T20:44:44.394Z,67.40
2023-04-26T20:47:10.928Z,67.44
2023-04-26T20:49:37.421Z,68.11
2023-04-26T20:52:04.222Z,68.74
2023-04-26T20:54:31.600Z,68.29
2023-04-26T20:56:58.090Z,68.33
2023-04-26T20:59:25.232Z,68.53
2023-04-26T21:01:53.256Z,69.08
2023-04-26T21:04:20.130Z,69.67
2023-04-26T21:06:46.905Z,69.47
2023-04-26T21:09:13.481Z,69.36
2023-04-26T21:11:40.106Z,69.92
2023-04-26T21:14:07.236Z,70.07
2023-04-26T21:16:33.886Z,70.21
2023-04-26T21:19:00.537Z,70.91
2023-04-26T21:21:28.718Z,70.95
2023-04-26T21:23:55.565Z,71.19
2023-04-26T21:26:22.198Z,70.84
2023-04-26T21:28:48.888Z,71.38
2023-04-26T21:31:15.623Z,71.54
2023-04-26T21:33:42.239Z,71.48
2023-04-26T21:36:09.072Z,72.04
2023-04-26T21:38:35.661Z,71.87
2023-04-26T21:41:02.242Z,72.06
2023-04-26T21:43:28.740Z,71.94
2023-04-26T21:45:58.595Z,72.20
2023-04-26T21:48:26.274Z,72.59
2023-04-26T21:50:53.161Z,72.18
2023-04-26T21:53:19.716Z,72.66
2023-04-26T21:55:55.294Z,72.61
2023-04-26T21:58:22.152Z,72.62
2023-04-26T22:00:49.585Z,72.11
2023-04-26T22:03:17.291Z,71.93
2023-04-26T22:05:44.052Z,72.96
2023-04-26T22:08:10.703Z,72.71
2023-04-26T22:10:37.499Z,73.00
2023-04-26T22:13:05.254Z,73.29
2023-04-26T22:15:31.881Z,72.58
2023-04-26T22:17:58.431Z,72.68
2023-04-26T22:20:25.033Z,73.20
2023-04-26T22:22:51.645Z,72.87
2023-04-26T22:25:18.318Z,73.47
2023-04-26T22:27:44.844Z,74.02
2023-04-26T22:30:23.170Z,74.27
2023-04-26T22:32:53.698Z,74.28
2023-04-26T22:35:20.633Z,73.83
2023-04-26T22:37:47.700Z,73.61
2023-04-26T22:40:15.286Z,73.88
2023-04-26T22:42:42.452Z,74.15
2023-04-26T22:45:09.897Z,74.01
2023-04-26T22:47:36.563Z,74.43
2023-04-26T22:50:03.978Z,73.89
2023-04-26T22:52:32.107Z,74.42
2023-04-26T22:55:00.077Z,74.39
2023-04-26T22:57:27.123Z,74.03
2023-04-26T22:59:53.683Z,75.27
2023-04-26T23:02:20.965Z,75.35
2023-04-26T23:04:48.450Z,75.88
2023-04-26T23:07:15.037Z,75.46
2023-04-26T23:09:41.661Z,75.50
2023-04-26T23:12:08.231Z,75.99
2023-04-26T23:14:35.242Z,75.94
2023-04-26T23:17:02.825Z,76.79
2023-04-26T23:19:29.564Z,76.45
2023-04-26T23:21:56.400Z,76.74
2023-04-26T23:24:22.995Z,76.85
2023-04-26T23:26:49.600Z,76.72
2023-04-26T23:29:16.183Z,76.34
2023-04-26T23:31:43.082Z,76.85
2023-04-26T23:34:09.730Z,77.12
2023-04-26T23:36:36.572Z,77.29
2023-04-26T23:39:03.880Z,77.66
2023-04-26T23:41:30.931Z,77.21
2023-04-26T23:43:57.510Z,77.22
2023-04-26T23:46:24.181Z,77.27
2023-04-26T23:48:50.787Z,77.76
2023-04-26T23:51:17.471Z,77.91
2023-04-26T23:53:44.917Z,77.21
2023-04-26T23:56:11.641Z,77.78
2023-04-26T23:58:38.239Z,77.78
